Consuelo Batey Anita airport

Jump to: basic info | weather | comments

Related pages: nearby airports | nearby navaids | notams | map

Basic information (top)

Codes: MDBA
Location: lon 18.683332, lat -69.383331, elev 150 ft / 46 m msl
Status: small_airport

Weather (top)

Current conditions (rec'd 2010/02/12 06:00Z):

MDBA 120600Z 00000KT 9999 FEW017 SCT100 24/23 Q1012 HZ/ALL-QDS

Airport forecast for Las Américas International Airport 22nm (41km) SW (rec'd 2014/08/23 18:18Z):

TAF MDSD 231600Z 2318/2418 18012KT 9999 FEW014CB BKN016 BKN070 PROB40 2318/2400 3000 +TSRA SCT012CB BKN014 OVC060 
      BECMG 2322/2400 36010KT

Latest comments (top)

No comments yet for Consuelo Batey Anita airport

More... (top)

See also NOTAMs and nearby airports and navaids, or visit the Consuelo Batey Anita airport page at the main OurAirports website..